Azad Kashmir Weather



Azad Kashmir's Current Weather

Temprature 2.48o overcast clouds

overcast clouds

Rain: 0 %

Min Temprature2.48o
Max Temprature2.48o
Humidity51
Wind Speed3.72 m/h
Sun Rise06:36:46
Sun Set17:58:03
Current Time: 27-Feb-2020 00:23:55
Lat/Lon: 33.95, 73.91




Azad Kashmir's Geo Location



Azad Kashmir's Weather Forecast

Time Overall Temp Min Temp Max Temp Humidity Wind Speed Rain
27-Feb-2020 (Thu)
02:00:00 overcast clouds 1.890 1.890 1.890 57 4.02 m/h 0 %
05:00:00 overcast clouds 1.640 1.640 1.640 56 4.14 m/h 0 %
08:00:00 overcast clouds 3.500 3.500 3.500 48 4.35 m/h 0 %
11:00:00 overcast clouds 10.190 10.190 10.190 33 2.11 m/h 0 %
14:00:00 broken clouds 12.860 12.860 12.860 30 0.46 m/h 0 %
17:00:00 broken clouds 10.330 10.330 10.330 47 0.42 m/h 0 %
20:00:00 clear sky 4.590 4.590 4.590 49 3.29 m/h 0 %
23:00:00 scattered clouds 4.860 4.860 4.860 43 2.57 m/h 0 %
28-Feb-2020 (Fri)
02:00:00 light snow 4.560 4.560 4.560 50 3.2 m/h 0 %
05:00:00 light snow 3.750 3.750 3.750 58 3.5 m/h 0 %
08:00:00 light rain 4.370 4.370 4.370 72 4.52 m/h 100 %
11:00:00 light rain 9.620 9.620 9.620 61 2.63 m/h 31 %
14:00:00 light rain 10.170 10.170 10.170 63 2.15 m/h 94 %
17:00:00 light rain 8.780 8.780 8.780 68 2.4 m/h 144 %
20:00:00 light rain 5.650 5.650 5.650 78 4.6 m/h 81 %
23:00:00 light rain 4.920 4.920 4.920 77 3.41 m/h 25 %
29-Feb-2020 (Sat)
02:00:00 light rain 4.220 4.220 4.220 83 3.67 m/h 25 %
05:00:00 overcast clouds 4.010 4.010 4.010 87 2.72 m/h 0 %
08:00:00 light rain 4.120 4.120 4.120 89 2.55 m/h 144 %
11:00:00 light rain 4.360 4.360 4.360 88 3.86 m/h 275 %
14:00:00 light rain 8.360 8.360 8.360 73 1.83 m/h 106 %
17:00:00 light rain 6.530 6.530 6.530 80 2.74 m/h 275 %
20:00:00 clear sky 3.210 3.210 3.210 86 3.68 m/h 0 %
23:00:00 clear sky 2.650 2.650 2.650 87 3.67 m/h 0 %
01-Mar-2020 (Sun)
02:00:00 clear sky 2.210 2.210 2.210 87 3.57 m/h 0 %
05:00:00 clear sky 1.800 1.800 1.800 85 3.64 m/h 0 %
08:00:00 few clouds 4.290 4.290 4.290 79 3.98 m/h 0 %
11:00:00 clear sky 10.260 10.260 10.260 54 1.07 m/h 0 %
14:00:00 light rain 12.080 12.080 12.080 50 1.1 m/h 38 %
17:00:00 light rain 9.300 9.300 9.300 62 1.46 m/h 75 %
20:00:00 light rain 5.620 5.620 5.620 76 1.7 m/h 13 %
23:00:00 few clouds 4.400 4.400 4.400 71 2.67 m/h 0 %
02-Mar-2020 (Mon)
02:00:00 clear sky 3.450 3.450 3.450 69 3.18 m/h 0 %
05:00:00 clear sky 2.760 2.760 2.760 74 3.68 m/h 0 %
08:00:00 clear sky 5.370 5.370 5.370 69 3.43 m/h 0 %
11:00:00 clear sky 11.690 11.690 11.690 47 0.63 m/h 0 %
14:00:00 broken clouds 12.420 12.420 12.420 44 2.12 m/h 0 %
17:00:00 light rain 10.140 10.140 10.140 55 0.73 m/h 31 %
20:00:00 scattered clouds 6.190 6.190 6.190 71 1.43 m/h 0 %
23:00:00 light rain 4.820 4.820 4.820 76 1.84 m/h 19 %

Famous Cities (61)